createdAt,value
2023-02-25T00:02:03.471Z,28.90
2023-02-25T00:04:32.874Z,32.20
2023-02-25T00:07:02.295Z,33.30
2023-02-25T00:09:31.084Z,34.10
2023-02-25T00:11:59.778Z,31.10
2023-02-25T00:14:28.972Z,33.60
2023-02-25T00:16:57.661Z,36.00
2023-02-25T00:19:26.674Z,29.90
2023-02-25T00:21:55.459Z,31.20
2023-02-25T00:24:23.968Z,36.90
2023-02-25T00:26:52.434Z,41.40
2023-02-25T00:29:20.825Z,29.90
2023-02-25T00:31:49.563Z,49.70
2023-02-25T00:34:18.319Z,48.70
2023-02-25T00:36:46.722Z,33.20
2023-02-25T00:39:15.522Z,35.00
2023-02-25T00:41:44.475Z,29.90
2023-02-25T00:44:13.320Z,31.40
2023-02-25T00:46:41.809Z,31.40
2023-02-25T00:49:12.139Z,29.80
2023-02-25T00:51:41.800Z,39.10
2023-02-25T00:54:09.978Z,37.60
2023-02-25T00:56:38.363Z,31.20
2023-02-25T00:59:06.847Z,41.00
2023-02-25T01:01:38.192Z,41.30
2023-02-25T01:04:07.293Z,29.60
2023-02-25T01:06:37.857Z,38.80
2023-02-25T01:09:08.009Z,38.50
2023-02-25T01:11:36.724Z,32.90
2023-02-25T01:14:08.328Z,30.80
2023-02-25T01:16:38.188Z,28.30
2023-02-25T01:19:09.883Z,34.60
2023-02-25T01:21:42.072Z,29.40
2023-02-25T01:24:17.257Z,33.40
2023-02-25T01:26:47.031Z,33.80
2023-02-25T01:29:22.461Z,32.50
2023-02-25T01:31:56.368Z,31.90
2023-02-25T01:36:53.460Z,34.70
2023-02-25T01:39:26.272Z,32.50
2023-02-25T01:41:58.524Z,36.70
2023-02-25T01:44:32.838Z,32.00
2023-02-25T01:47:01.834Z,30.90
2023-02-25T01:49:55.072Z,28.00
2023-02-25T01:52:25.916Z,34.70
2023-02-25T01:54:58.314Z,36.60
2023-02-25T01:57:27.029Z,34.40
2023-02-25T01:59:55.752Z,50.10
2023-02-25T02:02:29.008Z,38.70
2023-02-25T02:04:57.464Z,34.90
2023-02-25T02:07:25.745Z,39.40
2023-02-25T02:09:56.804Z,48.90
2023-02-25T02:12:36.249Z,36.20
2023-02-25T02:15:11.370Z,44.90
2023-02-25T02:17:44.755Z,34.30
2023-02-25T02:20:25.119Z,40.90
2023-02-25T02:23:27.580Z,38.20
2023-02-25T02:26:04.966Z,30.20
2023-02-25T02:29:03.036Z,38.80
2023-02-25T02:31:56.044Z,35.30
2023-02-25T02:34:50.172Z,32.00
2023-02-25T02:37:27.845Z,44.30
2023-02-25T02:40:15.566Z,35.80
2023-02-25T02:43:07.076Z,37.80
2023-02-25T02:45:57.273Z,38.20
2023-02-25T02:48:39.466Z,39.10
2023-02-25T02:51:14.802Z,35.10
2023-02-25T02:53:52.702Z,35.40
2023-02-25T02:56:25.274Z,30.70
2023-02-25T02:58:59.722Z,37.50
2023-02-25T03:01:40.258Z,39.40
2023-02-25T03:04:14.529Z,38.60
2023-02-25T03:06:48.288Z,35.50
2023-02-25T03:09:47.476Z,35.80
2023-02-25T03:12:16.567Z,42.40
2023-02-25T03:14:44.968Z,34.60
2023-02-25T03:17:27.362Z,39.50
2023-02-25T03:20:29.179Z,32.50
2023-02-25T03:23:04.433Z,36.00
2023-02-25T03:25:47.481Z,40.30
2023-02-25T03:28:32.689Z,37.90
2023-02-25T03:31:21.789Z,39.90
2023-02-25T03:34:16.285Z,43.60
2023-02-25T03:36:59.706Z,36.60
2023-02-25T03:39:32.299Z,40.30
2023-02-25T03:42:04.807Z,39.40
2023-02-25T03:44:39.706Z,41.10
2023-02-25T03:47:11.052Z,43.50
2023-02-25T03:52:21.236Z,39.80
2023-02-25T03:54:56.877Z,33.30
2023-02-25T03:57:34.838Z,40.30
2023-02-25T04:00:15.749Z,36.00
2023-02-25T04:02:46.751Z,35.40
2023-02-25T04:05:17.839Z,37.40
2023-02-25T04:07:46.438Z,30.20
2023-02-25T04:10:17.775Z,33.90
2023-02-25T04:12:47.693Z,35.00
2023-02-25T04:15:15.974Z,35.40
2023-02-25T04:17:45.588Z,36.10
2023-02-25T04:20:16.798Z,40.90
2023-02-25T04:22:45.135Z,36.00
2023-02-25T04:25:13.508Z,35.60
2023-02-25T04:27:41.683Z,36.20
2023-02-25T04:30:10.865Z,39.10
2023-02-25T04:32:39.312Z,42.40
2023-02-25T04:35:12.374Z,40.70
2023-02-25T04:37:42.094Z,37.20
2023-02-25T04:40:15.363Z,44.80
2023-02-25T04:42:44.172Z,35.50
2023-02-25T04:45:13.426Z,43.70
2023-02-25T04:47:42.391Z,41.30
2023-02-25T04:50:11.682Z,38.00
2023-02-25T04:52:40.067Z,38.80
2023-02-25T04:55:10.060Z,38.50
2023-02-25T04:57:42.793Z,41.10
2023-02-25T05:00:24.383Z,38.80
2023-02-25T05:02:52.839Z,40.80
2023-02-25T05:05:21.337Z,34.10
2023-02-25T05:07:49.815Z,46.80
2023-02-25T05:10:18.407Z,32.10
2023-02-25T05:12:46.784Z,38.50
2023-02-25T05:15:16.397Z,35.90
2023-02-25T05:17:44.679Z,35.60
2023-02-25T05:20:13.394Z,40.80
2023-02-25T05:22:42.579Z,34.60
2023-02-25T05:25:11.594Z,40.70
2023-02-25T05:27:40.061Z,41.70
2023-02-25T05:30:09.918Z,33.90
2023-02-25T05:32:39.087Z,36.40
2023-02-25T05:35:09.462Z,39.00
2023-02-25T05:37:38.442Z,39.70
2023-02-25T05:40:09.833Z,40.00
2023-02-25T05:42:38.044Z,43.40
2023-02-25T05:45:11.436Z,39.40
2023-02-25T05:47:39.934Z,36.40
2023-02-25T05:50:09.370Z,34.30
2023-02-25T05:52:38.231Z,38.50
2023-02-25T05:55:09.608Z,34.10
2023-02-25T05:57:38.341Z,34.50
2023-02-25T06:00:09.934Z,34.90
2023-02-25T06:02:42.214Z,35.60
2023-02-25T06:05:10.591Z,39.50
2023-02-25T06:07:38.870Z,31.50
2023-02-25T06:10:10.054Z,38.60
2023-02-25T06:12:39.016Z,33.50
2023-02-25T06:15:08.172Z,40.40
2023-02-25T06:17:36.603Z,37.80
2023-02-25T06:20:06.379Z,36.30
2023-02-25T06:22:34.605Z,30.20
2023-02-25T06:25:03.405Z,39.60
2023-02-25T06:27:31.895Z,33.60
2023-02-25T06:30:02.699Z,37.20
2023-02-25T06:32:31.151Z,39.80
2023-02-25T06:34:59.800Z,34.10
2023-02-25T06:37:28.385Z,45.20
2023-02-25T06:39:56.667Z,37.90
2023-02-25T06:42:25.461Z,40.40
2023-02-25T06:44:54.062Z,33.70
2023-02-25T06:47:23.464Z,45.20
2023-02-25T06:49:51.950Z,40.80
2023-02-25T06:52:20.331Z,40.50
2023-02-25T06:54:48.622Z,51.00
2023-02-25T06:57:17.522Z,49.20
2023-02-25T06:59:45.995Z,52.50
2023-02-25T07:02:14.784Z,45.70
2023-02-25T07:04:44.192Z,35.00
2023-02-25T07:07:12.576Z,42.10
2023-02-25T07:09:41.168Z,51.90
2023-02-25T07:12:09.670Z,50.50
2023-02-25T07:14:38.244Z,51.00
2023-02-25T07:17:06.726Z,44.50
2023-02-25T07:19:35.018Z,52.30
2023-02-25T07:22:05.445Z,52.50
2023-02-25T07:24:33.932Z,54.40
2023-02-25T07:27:02.311Z,37.20
2023-02-25T07:29:30.614Z,29.90
2023-02-25T07:32:00.346Z,37.80
2023-02-25T07:34:28.808Z,40.10
2023-02-25T07:36:57.079Z,43.90
2023-02-25T07:39:25.918Z,27.80
2023-02-25T07:41:54.469Z,54.80
2023-02-25T07:44:22.952Z,38.20
2023-02-25T07:46:51.646Z,38.70
2023-02-25T07:49:20.025Z,30.30
2023-02-25T07:51:48.210Z,32.50
2023-02-25T07:54:17.516Z,33.20
2023-02-25T07:56:46.508Z,34.70
2023-02-25T07:59:15.202Z,29.90
2023-02-25T08:01:44.450Z,27.70
2023-02-25T08:04:12.924Z,25.10
2023-02-25T08:06:42.204Z,27.10
2023-02-25T08:09:12.471Z,31.40
2023-02-25T08:11:41.729Z,24.70
2023-02-25T08:14:11.383Z,30.10
2023-02-25T08:16:40.136Z,33.20
2023-02-25T08:19:08.534Z,32.60
2023-02-25T08:21:37.665Z,31.50
2023-02-25T08:24:07.493Z,26.50
2023-02-25T08:26:35.925Z,22.10
2023-02-25T08:29:04.893Z,34.30
2023-02-25T08:31:34.255Z,33.80
2023-02-25T08:34:02.625Z,29.10
2023-02-25T08:36:31.659Z,30.70
2023-02-25T08:39:01.727Z,19.50
2023-02-25T08:41:30.639Z,18.80
2023-02-25T08:44:01.445Z,22.40
2023-02-25T08:46:32.966Z,24.20
2023-02-25T08:49:02.133Z,29.50
2023-02-25T08:51:34.750Z,33.70
2023-02-25T08:54:09.229Z,32.00
2023-02-25T08:56:44.730Z,33.30
2023-02-25T08:59:16.128Z,32.30
2023-02-25T09:01:45.148Z,17.70
2023-02-25T09:04:16.980Z,20.90
2023-02-25T09:06:48.441Z,36.10
2023-02-25T09:09:18.981Z,22.70
2023-02-25T09:11:48.882Z,41.40
2023-02-25T09:14:18.316Z,26.10
2023-02-25T09:16:46.606Z,36.40
2023-02-25T09:19:17.495Z,26.20
2023-02-25T09:21:50.465Z,23.80
2023-02-25T09:24:19.248Z,31.60
2023-02-25T09:26:48.119Z,32.00
2023-02-25T09:29:16.846Z,30.30
2023-02-25T09:31:45.297Z,31.50
2023-02-25T09:34:14.615Z,21.50
2023-02-25T09:36:43.309Z,31.20
2023-02-25T09:39:13.083Z,30.40
2023-02-25T09:41:41.493Z,30.00
2023-02-25T09:44:36.374Z,34.00
2023-02-25T09:47:21.584Z,34.20
2023-02-25T09:50:14.030Z,22.30
2023-02-25T09:52:45.835Z,32.20
2023-02-25T09:55:30.803Z,24.90
2023-02-25T09:58:23.652Z,33.50
2023-02-25T10:01:04.867Z,29.50
2023-02-25T10:03:45.796Z,30.80
2023-02-25T10:06:50.909Z,31.00
2023-02-25T10:09:31.786Z,24.10
2023-02-25T10:12:14.170Z,26.20
2023-02-25T10:15:06.212Z,39.00
2023-02-25T10:17:51.297Z,37.30
2023-02-25T10:20:39.233Z,37.80
2023-02-25T10:23:28.169Z,36.90
2023-02-25T10:25:58.706Z,35.00
2023-02-25T10:28:29.950Z,39.00
2023-02-25T10:31:08.236Z,44.90
2023-02-25T10:33:40.627Z,47.60
2023-02-25T10:36:21.703Z,38.90
2023-02-25T10:38:52.961Z,32.40
2023-02-25T10:41:25.466Z,38.30
2023-02-25T10:43:55.846Z,31.60
2023-02-25T10:46:39.257Z,28.80
2023-02-25T10:49:23.116Z,27.60
2023-02-25T10:52:15.151Z,33.30
2023-02-25T10:54:52.215Z,30.00
2023-02-25T10:57:28.291Z,41.30
2023-02-25T11:00:21.749Z,36.70
2023-02-25T11:02:51.880Z,33.20
2023-02-25T11:05:49.795Z,33.90
2023-02-25T11:08:31.642Z,29.80
2023-02-25T11:11:06.797Z,42.10
2023-02-25T11:13:37.257Z,30.20
2023-02-25T11:16:14.139Z,45.70
2023-02-25T11:18:42.868Z,28.80
2023-02-25T11:21:14.482Z,34.60
2023-02-25T11:23:43.429Z,28.10
2023-02-25T11:26:30.364Z,37.50
2023-02-25T11:29:19.171Z,37.90
2023-02-25T11:32:01.656Z,32.20
2023-02-25T11:34:32.022Z,37.90
2023-02-25T11:37:31.504Z,43.60
2023-02-25T11:39:59.998Z,36.40
2023-02-25T11:42:30.491Z,33.10
2023-02-25T11:45:04.849Z,29.40
2023-02-25T11:47:38.607Z,28.60
2023-02-25T11:53:13.424Z,31.80
2023-02-25T11:55:52.414Z,35.20
2023-02-25T11:58:51.499Z,34.60
2023-02-25T12:01:37.581Z,36.00
2023-02-25T12:04:08.732Z,35.00
2023-02-25T12:07:09.151Z,31.40
2023-02-25T12:10:22.144Z,31.90
2023-02-25T12:13:23.868Z,36.80
2023-02-25T12:16:10.865Z,34.60
2023-02-25T12:18:50.434Z,37.50
2023-02-25T12:21:37.344Z,41.50
2023-02-25T12:24:37.668Z,35.90
2023-02-25T12:27:34.408Z,47.80
2023-02-25T12:30:43.009Z,33.60
2023-02-25T12:34:05.829Z,43.10
2023-02-25T12:36:49.788Z,45.80
2023-02-25T12:39:43.725Z,36.20
2023-02-25T12:42:39.229Z,46.70
2023-02-25T12:45:43.150Z,33.80
2023-02-25T12:48:36.778Z,40.90
2023-02-25T12:51:35.861Z,30.10
2023-02-25T12:54:04.362Z,39.40
2023-02-25T12:56:53.715Z,28.80
2023-02-25T12:59:22.723Z,30.50
2023-02-25T13:02:13.102Z,37.80
2023-02-25T13:05:00.010Z,37.80
2023-02-25T13:07:37.302Z,31.80
2023-02-25T13:10:30.563Z,38.60
2023-02-25T13:13:20.443Z,28.60
2023-02-25T13:16:35.712Z,24.80
2023-02-25T13:19:16.131Z,29.60
2023-02-25T13:22:00.898Z,31.20
2023-02-25T13:24:54.139Z,23.90
2023-02-25T13:27:39.889Z,31.80
2023-02-25T13:30:12.204Z,36.80
2023-02-25T13:33:11.897Z,35.00
2023-02-25T13:36:05.453Z,26.40
2023-02-25T13:39:02.081Z,36.30
2023-02-25T13:41:31.303Z,21.10
2023-02-25T13:44:22.801Z,30.50
2023-02-25T13:47:21.370Z,32.80
2023-02-25T13:50:14.524Z,33.30
2023-02-25T13:52:57.597Z,33.60
2023-02-25T13:56:01.032Z,28.50
2023-02-25T13:58:47.721Z,31.70
2023-02-25T14:01:35.270Z,21.20
2023-02-25T14:04:28.394Z,26.40
2023-02-25T14:07:21.132Z,20.10
2023-02-25T14:10:14.492Z,18.40
2023-02-25T14:13:11.537Z,15.30
2023-02-25T14:15:55.758Z,17.90
2023-02-25T14:18:45.645Z,14.20
2023-02-25T14:21:41.660Z,9.10
2023-02-25T14:24:28.140Z,18.60
2023-02-25T14:27:29.605Z,8.70
2023-02-25T14:30:24.651Z,7.30
2023-02-25T14:33:11.902Z,15.30
2023-02-25T14:36:20.647Z,8.10
2023-02-25T14:38:51.559Z,6.60
2023-02-25T14:41:41.284Z,6.60
2023-02-25T14:44:24.753Z,15.90
2023-02-25T14:47:16.568Z,4.00
2023-02-25T14:50:00.406Z,6.00
2023-02-25T14:55:22.548Z,10.50
2023-02-25T14:58:16.285Z,6.40
2023-02-25T15:01:04.753Z,5.00
2023-02-25T15:03:54.729Z,12.30
2023-02-25T15:06:41.227Z,6.50
2023-02-25T15:09:38.984Z,6.50
2023-02-25T15:12:36.734Z,7.70
2023-02-25T15:15:37.782Z,6.70
2023-02-25T15:18:26.922Z,6.80
2023-02-25T15:20:57.112Z,7.40
2023-02-25T15:23:49.489Z,9.60
2023-02-25T15:27:13.554Z,6.10
2023-02-25T15:29:45.604Z,9.20
2023-02-25T15:32:17.166Z,14.30
2023-02-25T15:35:02.532Z,15.10
2023-02-25T15:37:35.620Z,17.80
2023-02-25T15:40:16.696Z,18.90
2023-02-25T15:42:55.605Z,16.90
2023-02-25T15:45:27.340Z,7.60
2023-02-25T15:48:08.554Z,3.50
2023-02-25T15:50:42.874Z,3.90
2023-02-25T15:53:39.614Z,6.80
2023-02-25T15:56:08.709Z,6.00
2023-02-25T15:59:00.659Z,1.30
2023-02-25T16:01:43.041Z,2.20
2023-02-25T16:04:50.325Z,2.40
2023-02-25T16:07:21.862Z,2.50
2023-02-25T16:09:55.569Z,2.20
2023-02-25T16:12:25.181Z,2.30
2023-02-25T16:14:55.523Z,4.20
2023-02-25T16:17:30.861Z,3.60
2023-02-25T16:20:15.020Z,2.40
2023-02-25T16:22:46.051Z,3.80
2023-02-25T16:25:19.134Z,2.70
2023-02-25T16:28:01.756Z,3.60
2023-02-25T16:30:41.565Z,4.70
2023-02-25T16:33:20.727Z,3.90
2023-02-25T16:36:06.867Z,9.70
2023-02-25T16:39:06.019Z,10.10
2023-02-25T16:41:38.705Z,7.20
2023-02-25T16:44:08.684Z,6.40
2023-02-25T16:46:39.622Z,5.70
2023-02-25T16:49:11.923Z,10.80
2023-02-25T16:51:42.549Z,5.30
2023-02-25T16:54:41.652Z,4.40
2023-02-25T16:57:22.001Z,7.20
2023-02-25T16:59:52.575Z,4.30
2023-02-25T17:02:25.898Z,7.20
2023-02-25T17:07:27.987Z,4.90
2023-02-25T17:10:02.233Z,5.60
2023-02-25T17:12:33.454Z,9.70
2023-02-25T17:15:06.166Z,12.30
2023-02-25T17:17:38.813Z,6.80
2023-02-25T17:20:16.329Z,10.60
2023-02-25T17:22:45.640Z,4.50
2023-02-25T17:25:18.333Z,7.80
2023-02-25T17:27:50.085Z,2.20
2023-02-25T17:30:37.043Z,1.40
2023-02-25T17:33:06.341Z,6.40
2023-02-25T17:35:36.120Z,5.30
2023-02-25T17:38:04.915Z,2.10
2023-02-25T17:40:33.601Z,11.10
2023-02-25T17:43:20.982Z,3.40
2023-02-25T17:45:54.892Z,12.60
2023-02-25T17:51:06.039Z,7.80
2023-02-25T17:53:46.793Z,7.50
2023-02-25T17:56:25.598Z,5.80
2023-02-25T17:59:03.890Z,6.10
2023-02-25T18:01:47.251Z,6.80
2023-02-25T18:08:17.619Z,7.00
2023-02-25T18:10:48.680Z,8.60
2023-02-25T18:13:21.597Z,11.50
2023-02-25T18:16:28.799Z,13.70
2023-02-25T18:18:59.991Z,14.20
2023-02-25T18:21:29.165Z,12.90
2023-02-25T18:24:02.271Z,4.40
2023-02-25T18:26:30.789Z,4.50
2023-02-25T18:29:10.311Z,5.20
2023-02-25T18:31:38.651Z,4.60
2023-02-25T18:34:07.094Z,6.40
2023-02-25T18:36:35.591Z,4.80
2023-02-25T18:39:04.993Z,6.00
2023-02-25T18:41:33.774Z,15.50
2023-02-25T18:44:02.411Z,4.70
2023-02-25T18:46:31.025Z,4.50
2023-02-25T18:49:00.361Z,7.00
2023-02-25T18:51:28.650Z,8.80
2023-02-25T18:53:56.923Z,12.30
2023-02-25T18:56:25.816Z,6.00
2023-02-25T18:58:56.741Z,8.70
2023-02-25T19:01:33.160Z,7.80
2023-02-25T19:04:01.424Z,7.30
2023-02-25T19:06:32.109Z,7.00
2023-02-25T19:09:01.060Z,5.40
2023-02-25T19:11:33.866Z,6.50
2023-02-25T19:14:03.246Z,9.10
2023-02-25T19:16:31.862Z,16.20
2023-02-25T19:19:00.421Z,5.10
2023-02-25T19:21:29.011Z,4.20
2023-02-25T19:23:57.498Z,4.00
2023-02-25T19:26:26.080Z,5.90
2023-02-25T19:28:54.895Z,11.80
2023-02-25T19:31:23.192Z,9.40
2023-02-25T19:33:53.494Z,16.80
2023-02-25T19:36:22.405Z,4.60
2023-02-25T19:38:51.408Z,7.00
2023-02-25T19:41:20.285Z,5.50
2023-02-25T19:43:49.073Z,18.10
2023-02-25T19:46:18.218Z,7.80
2023-02-25T19:48:46.661Z,7.30
2023-02-25T19:51:15.716Z,5.70
2023-02-25T19:53:45.800Z,8.50
2023-02-25T19:56:14.069Z,6.30
2023-02-25T19:58:42.754Z,6.10
2023-02-25T20:01:11.212Z,6.80
2023-02-25T20:03:39.874Z,7.10
2023-02-25T20:06:13.421Z,7.20
2023-02-25T20:08:41.924Z,5.30
2023-02-25T20:11:11.384Z,7.90
2023-02-25T20:13:40.025Z,8.00
2023-02-25T20:16:09.488Z,4.20
2023-02-25T20:18:38.713Z,10.70
2023-02-25T20:21:07.422Z,38.30
2023-02-25T20:23:35.728Z,29.80
2023-02-25T20:26:07.404Z,10.70
2023-02-25T20:28:36.489Z,12.90
2023-02-25T20:31:11.297Z,15.70
2023-02-25T20:33:40.698Z,13.60
2023-02-25T20:36:25.759Z,6.10
2023-02-25T20:39:19.225Z,7.20
2023-02-25T20:41:48.234Z,8.20
2023-02-25T20:44:16.916Z,10.90
2023-02-25T20:46:45.609Z,7.30
2023-02-25T20:49:17.064Z,8.20
2023-02-25T20:51:47.587Z,6.20
2023-02-25T20:54:18.025Z,8.00
2023-02-25T20:56:47.845Z,6.00
2023-02-25T20:59:17.625Z,5.60
2023-02-25T21:01:45.945Z,4.90
2023-02-25T21:04:14.366Z,8.40
2023-02-25T21:06:43.423Z,9.50
2023-02-25T21:09:11.918Z,6.60
2023-02-25T21:11:40.292Z,6.30
2023-02-25T21:14:10.625Z,9.70
2023-02-25T21:16:40.904Z,8.70
2023-02-25T21:19:09.444Z,8.70
2023-02-25T21:21:38.285Z,13.70
2023-02-25T21:24:10.355Z,11.60
2023-02-25T21:26:39.558Z,13.80
2023-02-25T21:29:09.018Z,10.20
2023-02-25T21:31:38.243Z,12.00
2023-02-25T21:34:06.915Z,12.60
2023-02-25T21:36:38.131Z,11.60
2023-02-25T21:39:09.481Z,12.60
2023-02-25T21:41:44.069Z,9.00
2023-02-25T21:44:13.853Z,7.30
2023-02-25T21:46:42.913Z,6.90
2023-02-25T21:49:11.445Z,10.60
2023-02-25T21:51:40.406Z,7.70
2023-02-25T21:54:09.235Z,16.20
2023-02-25T21:56:40.726Z,10.00
2023-02-25T21:59:09.960Z,10.90
2023-02-25T22:01:41.321Z,14.30
2023-02-25T22:04:10.518Z,18.00
2023-02-25T22:06:38.948Z,9.60
2023-02-25T22:09:07.240Z,18.10
2023-02-25T22:11:37.262Z,10.90
2023-02-25T22:14:07.767Z,16.80
2023-02-25T22:16:38.253Z,15.40
2023-02-25T22:19:07.357Z,17.30
2023-02-25T22:21:36.273Z,11.20
2023-02-25T22:24:06.153Z,10.20
2023-02-25T22:26:36.370Z,17.80
2023-02-25T22:29:08.023Z,16.30
2023-02-25T22:31:37.454Z,10.60
2023-02-25T22:34:06.527Z,13.70
2023-02-25T22:36:35.107Z,14.10
2023-02-25T22:39:05.848Z,12.00
2023-02-25T22:41:34.433Z,13.00
2023-02-25T22:44:03.888Z,8.80
2023-02-25T22:46:36.259Z,9.20
2023-02-25T22:49:07.559Z,10.60
2023-02-25T22:51:42.269Z,14.00
2023-02-25T22:54:12.706Z,13.30
2023-02-25T22:56:42.930Z,13.30
2023-02-25T22:59:12.160Z,20.80
2023-02-25T23:01:41.004Z,8.00
2023-02-25T23:04:09.441Z,11.50
2023-02-25T23:06:44.143Z,13.50
2023-02-25T23:09:14.399Z,10.90
2023-02-25T23:11:44.346Z,13.80
2023-02-25T23:14:14.495Z,11.30
2023-02-25T23:16:46.404Z,16.70
2023-02-25T23:19:17.454Z,20.70
2023-02-25T23:21:46.843Z,20.60
2023-02-25T23:24:18.778Z,15.60
2023-02-25T23:26:50.845Z,30.60
2023-02-25T23:29:21.364Z,33.40
2023-02-25T23:31:50.494Z,20.20
2023-02-25T23:34:23.321Z,17.30
2023-02-25T23:36:56.054Z,18.30
2023-02-25T23:39:25.114Z,20.30
2023-02-25T23:41:53.582Z,22.50
2023-02-25T23:44:22.167Z,14.50
2023-02-25T23:46:50.751Z,14.40
2023-02-25T23:49:20.163Z,21.00
2023-02-25T23:51:48.859Z,11.20
2023-02-25T23:54:22.658Z,11.40
2023-02-25T23:59:22.781Z,11.80
